sensor_id;sensor_type;location;lat;lon;timestamp;pressure;altitude;pressure_sealevel;temperature
19948;BMP180;10135;50.702;7.276;2023-08-06T05:30:57;98201.00;;;19.50
19948;BMP180;10135;50.702;7.276;2023-08-06T05:32:58;98193.00;;;19.50
19948;BMP180;10135;50.702;7.276;2023-08-06T05:34:58;98202.00;;;19.50
19948;BMP180;10135;50.702;7.276;2023-08-06T05:36:59;98204.00;;;19.50
19948;BMP180;10135;50.702;7.276;2023-08-06T05:38:59;98207.00;;;19.50
19948;BMP180;10135;50.702;7.276;2023-08-06T05:41:00;98202.00;;;19.50
19948;BMP180;10135;50.702;7.276;2023-08-06T05:43:01;98205.00;;;19.50
19948;BMP180;10135;50.702;7.276;2023-08-06T05:45:02;98204.00;;;19.50
19948;BMP180;10135;50.702;7.276;2023-08-06T05:47:03;98206.00;;;19.50
19948;BMP180;10135;50.702;7.276;2023-08-06T05:49:04;98218.00;;;19.50
19948;BMP180;10135;50.702;7.276;2023-08-06T05:51:06;98217.00;;;19.50
19948;BMP180;10135;50.702;7.276;2023-08-06T05:53:07;98211.00;;;19.50
19948;BMP180;10135;50.702;7.276;2023-08-06T05:55:08;98212.00;;;19.50
19948;BMP180;10135;50.702;7.276;2023-08-06T05:57:08;98214.00;;;19.50
19948;BMP180;10135;50.702;7.276;2023-08-06T05:59:09;98214.00;;;19.50
19948;BMP180;10135;50.702;7.276;2023-08-06T06:01:10;98210.00;;;19.50
19948;BMP180;10135;50.702;7.276;2023-08-06T06:03:11;98209.00;;;19.50
19948;BMP180;10135;50.702;7.276;2023-08-06T06:05:11;98209.00;;;19.50
19948;BMP180;10135;50.702;7.276;2023-08-06T06:07:12;98214.00;;;19.50
19948;BMP180;10135;50.702;7.276;2023-08-06T06:09:13;98221.00;;;19.60
19948;BMP180;10135;50.702;7.276;2023-08-06T06:11:13;98215.00;;;19.60
19948;BMP180;10135;50.702;7.276;2023-08-06T06:13:14;98223.00;;;19.60
19948;BMP180;10135;50.702;7.276;2023-08-06T06:15:15;98218.00;;;19.60
19948;BMP180;10135;50.702;7.276;2023-08-06T06:17:15;98219.00;;;19.60
19948;BMP180;10135;50.702;7.276;2023-08-06T06:19:16;98225.00;;;19.60
19948;BMP180;10135;50.702;7.276;2023-08-06T06:21:16;98228.00;;;19.60
19948;BMP180;10135;50.702;7.276;2023-08-06T06:23:17;98229.00;;;19.60
19948;BMP180;10135;50.702;7.276;2023-08-06T06:25:18;98237.00;;;19.60
19948;BMP180;10135;50.702;7.276;2023-08-06T06:27:18;98234.00;;;19.60
19948;BMP180;10135;50.702;7.276;2023-08-06T06:29:19;98235.00;;;19.60
19948;BMP180;10135;50.702;7.276;2023-08-06T06:31:20;98235.00;;;19.60
19948;BMP180;10135;50.702;7.276;2023-08-06T06:33:20;98237.00;;;19.60
19948;BMP180;10135;50.702;7.276;2023-08-06T06:35:21;98244.00;;;19.60
19948;BMP180;10135;50.702;7.276;2023-08-06T06:37:22;98247.00;;;19.70
19948;BMP180;10135;50.702;7.276;2023-08-06T06:39:22;98242.00;;;19.70
19948;BMP180;10135;50.702;7.276;2023-08-06T06:41:23;98245.00;;;19.70
19948;BMP180;10135;50.702;7.276;2023-08-06T06:43:25;98242.00;;;19.70
19948;BMP180;10135;50.702;7.276;2023-08-06T06:45:26;98243.00;;;19.70
19948;BMP180;10135;50.702;7.276;2023-08-06T06:47:27;98251.00;;;19.80
19948;BMP180;10135;50.702;7.276;2023-08-06T06:49:27;98258.00;;;19.80
19948;BMP180;10135;50.702;7.276;2023-08-06T06:51:28;98254.00;;;19.80
19948;BMP180;10135;50.702;7.276;2023-08-06T06:53:29;98257.00;;;19.80
19948;BMP180;10135;50.702;7.276;2023-08-06T06:55:29;98259.00;;;19.90
19948;BMP180;10135;50.702;7.276;2023-08-06T06:57:30;98258.00;;;19.90
19948;BMP180;10135;50.702;7.276;2023-08-06T06:59:30;98262.00;;;19.90
19948;BMP180;10135;50.702;7.276;2023-08-06T07:01:31;98261.00;;;19.90
19948;BMP180;10135;50.702;7.276;2023-08-06T07:03:32;98266.00;;;20.00
19948;BMP180;10135;50.702;7.276;2023-08-06T07:05:32;98263.00;;;20.00
19948;BMP180;10135;50.702;7.276;2023-08-06T07:07:33;98261.00;;;20.00
19948;BMP180;10135;50.702;7.276;2023-08-06T07:09:34;98261.00;;;20.00
19948;BMP180;10135;50.702;7.276;2023-08-06T07:11:34;98259.00;;;20.00
19948;BMP180;10135;50.702;7.276;2023-08-06T07:13:35;98264.00;;;20.00
19948;BMP180;10135;50.702;7.276;2023-08-06T07:15:36;98266.00;;;20.10
19948;BMP180;10135;50.702;7.276;2023-08-06T07:17:36;98255.00;;;20.10
19948;BMP180;10135;50.702;7.276;2023-08-06T07:19:37;98261.00;;;20.10
19948;BMP180;10135;50.702;7.276;2023-08-06T07:21:38;98259.00;;;20.10
19948;BMP180;10135;50.702;7.276;2023-08-06T07:23:38;98263.00;;;20.10
19948;BMP180;10135;50.702;7.276;2023-08-06T07:25:39;98261.00;;;20.10
19948;BMP180;10135;50.702;7.276;2023-08-06T07:27:39;98264.00;;;20.10
19948;BMP180;10135;50.702;7.276;2023-08-06T07:29:40;98260.00;;;20.20
19948;BMP180;10135;50.702;7.276;2023-08-06T07:31:41;98275.00;;;20.20
19948;BMP180;10135;50.702;7.276;2023-08-06T07:33:41;98280.00;;;20.20
19948;BMP180;10135;50.702;7.276;2023-08-06T07:35:42;98273.00;;;20.20
19948;BMP180;10135;50.702;7.276;2023-08-06T07:37:43;98279.00;;;20.30
19948;BMP180;10135;50.702;7.276;2023-08-06T07:39:44;98285.00;;;20.30
19948;BMP180;10135;50.702;7.276;2023-08-06T07:41:45;98280.00;;;20.40
19948;BMP180;10135;50.702;7.276;2023-08-06T07:43:46;98285.00;;;20.40
19948;BMP180;10135;50.702;7.276;2023-08-06T07:45:46;98286.00;;;20.40
19948;BMP180;10135;50.702;7.276;2023-08-06T07:47:47;98271.00;;;20.50
19948;BMP180;10135;50.702;7.276;2023-08-06T07:49:48;98281.00;;;20.50
19948;BMP180;10135;50.702;7.276;2023-08-06T07:51:49;98289.00;;;20.50
19948;BMP180;10135;50.702;7.276;2023-08-06T07:53:49;98288.00;;;20.50
19948;BMP180;10135;50.702;7.276;2023-08-06T07:55:54;98283.00;;;20.60
19948;BMP180;10135;50.702;7.276;2023-08-06T07:57:54;98283.00;;;20.60
19948;BMP180;10135;50.702;7.276;2023-08-06T07:59:55;98286.00;;;20.60
19948;BMP180;10135;50.702;7.276;2023-08-06T08:01:56;98284.00;;;20.70
19948;BMP180;10135;50.702;7.276;2023-08-06T08:03:57;98287.00;;;20.70
19948;BMP180;10135;50.702;7.276;2023-08-06T08:05:57;98286.00;;;20.70
19948;BMP180;10135;50.702;7.276;2023-08-06T08:07:58;98282.00;;;20.70
19948;BMP180;10135;50.702;7.276;2023-08-06T08:09:58;98283.00;;;20.70
19948;BMP180;10135;50.702;7.276;2023-08-06T08:11:59;98284.00;;;20.70
19948;BMP180;10135;50.702;7.276;2023-08-06T08:14:01;98284.00;;;20.70
19948;BMP180;10135;50.702;7.276;2023-08-06T08:16:03;98286.00;;;20.70
19948;BMP180;10135;50.702;7.276;2023-08-06T08:18:04;98282.00;;;20.70
19948;BMP180;10135;50.702;7.276;2023-08-06T08:20:05;98284.00;;;20.70
19948;BMP180;10135;50.702;7.276;2023-08-06T08:22:06;98289.00;;;20.70
19948;BMP180;10135;50.702;7.276;2023-08-06T08:24:07;98289.00;;;20.70
19948;BMP180;10135;50.702;7.276;2023-08-06T08:26:08;98287.00;;;20.70
19948;BMP180;10135;50.702;7.276;2023-08-06T08:28:09;98284.00;;;20.70
19948;BMP180;10135;50.702;7.276;2023-08-06T08:30:10;98283.00;;;20.70
19948;BMP180;10135;50.702;7.276;2023-08-06T08:32:10;98288.00;;;20.70
19948;BMP180;10135;50.702;7.276;2023-08-06T08:34:11;98288.00;;;20.70
19948;BMP180;10135;50.702;7.276;2023-08-06T08:36:12;98297.00;;;20.70
19948;BMP180;10135;50.702;7.276;2023-08-06T08:38:12;98297.00;;;20.70
19948;BMP180;10135;50.702;7.276;2023-08-06T08:40:15;98295.00;;;20.70
19948;BMP180;10135;50.702;7.276;2023-08-06T08:42:16;98295.00;;;20.70
19948;BMP180;10135;50.702;7.276;2023-08-06T08:44:17;98295.00;;;20.70
19948;BMP180;10135;50.702;7.276;2023-08-06T08:46:19;98298.00;;;20.70
19948;BMP180;10135;50.702;7.276;2023-08-06T08:48:21;98297.00;;;20.80
19948;BMP180;10135;50.702;7.276;2023-08-06T08:50:22;98299.00;;;20.80
19948;BMP180;10135;50.702;7.276;2023-08-06T08:52:25;98299.00;;;20.80
19948;BMP180;10135;50.702;7.276;2023-08-06T08:54:27;98298.00;;;20.80
19948;BMP180;10135;50.702;7.276;2023-08-06T08:56:27;98303.00;;;20.80
19948;BMP180;10135;50.702;7.276;2023-08-06T08:58:28;98304.00;;;20.80
19948;BMP180;10135;50.702;7.276;2023-08-06T09:00:29;98313.00;;;20.80
19948;BMP180;10135;50.702;7.276;2023-08-06T09:02:32;98308.00;;;20.90
19948;BMP180;10135;50.702;7.276;2023-08-06T09:04:34;98308.00;;;20.90
19948;BMP180;10135;50.702;7.276;2023-08-06T09:06:38;98308.00;;;20.90
19948;BMP180;10135;50.702;7.276;2023-08-06T09:09:11;98319.00;;;20.90
19948;BMP180;10135;50.702;7.276;2023-08-06T09:11:13;98319.00;;;20.90
19948;BMP180;10135;50.702;7.276;2023-08-06T09:13:13;98318.00;;;20.90
19948;BMP180;10135;50.702;7.276;2023-08-06T09:15:14;98325.00;;;20.90
19948;BMP180;10135;50.702;7.276;2023-08-06T09:17:15;98327.00;;;20.90
19948;BMP180;10135;50.702;7.276;2023-08-06T09:19:20;98327.00;;;20.90
19948;BMP180;10135;50.702;7.276;2023-08-06T09:21:20;98335.00;;;20.80
19948;BMP180;10135;50.702;7.276;2023-08-06T09:23:28;98325.00;;;20.80
19948;BMP180;10135;50.702;7.276;2023-08-06T09:25:33;98326.00;;;20.80
19948;BMP180;10135;50.702;7.276;2023-08-06T09:27:37;98331.00;;;20.80
19948;BMP180;10135;50.702;7.276;2023-08-06T09:29:41;98331.00;;;20.70
19948;BMP180;10135;50.702;7.276;2023-08-06T09:31:48;98328.00;;;20.70
19948;BMP180;10135;50.702;7.276;2023-08-06T09:33:49;98335.00;;;20.70
19948;BMP180;10135;50.702;7.276;2023-08-06T09:35:49;98333.00;;;20.70
19948;BMP180;10135;50.702;7.276;2023-08-06T09:37:50;98333.00;;;20.60
19948;BMP180;10135;50.702;7.276;2023-08-06T09:39:51;98332.00;;;20.60
19948;BMP180;10135;50.702;7.276;2023-08-06T09:42:00;98336.00;;;20.60
19948;BMP180;10135;50.702;7.276;2023-08-06T09:44:01;98347.00;;;20.60
19948;BMP180;10135;50.702;7.276;2023-08-06T09:46:11;98347.00;;;20.50
19948;BMP180;10135;50.702;7.276;2023-08-06T09:48:13;98341.00;;;20.60
19948;BMP180;10135;50.702;7.276;2023-08-06T09:50:20;98337.00;;;20.50
19948;BMP180;10135;50.702;7.276;2023-08-06T09:52:22;98345.00;;;20.50
19948;BMP180;10135;50.702;7.276;2023-08-06T09:54:24;98342.00;;;20.40
19948;BMP180;10135;50.702;7.276;2023-08-06T09:56:24;98338.00;;;20.40
19948;BMP180;10135;50.702;7.276;2023-08-06T09:58:27;98345.00;;;20.40
19948;BMP180;10135;50.702;7.276;2023-08-06T10:00:28;98345.00;;;20.30
19948;BMP180;10135;50.702;7.276;2023-08-06T10:02:33;98355.00;;;20.30
19948;BMP180;10135;50.702;7.276;2023-08-06T10:04:34;98359.00;;;20.20
19948;BMP180;10135;50.702;7.276;2023-08-06T10:06:35;98366.00;;;20.20
19948;BMP180;10135;50.702;7.276;2023-08-06T10:08:36;98365.00;;;20.20
19948;BMP180;10135;50.702;7.276;2023-08-06T10:10:37;98369.00;;;20.10
19948;BMP180;10135;50.702;7.276;2023-08-06T10:12:46;98370.00;;;20.10
19948;BMP180;10135;50.702;7.276;2023-08-06T10:14:49;98370.00;;;20.10
19948;BMP180;10135;50.702;7.276;2023-08-06T10:16:51;98368.00;;;20.00
19948;BMP180;10135;50.702;7.276;2023-08-06T10:18:52;98382.00;;;20.00
19948;BMP180;10135;50.702;7.276;2023-08-06T10:20:54;98395.00;;;20.00
19948;BMP180;10135;50.702;7.276;2023-08-06T10:23:13;98379.00;;;19.90
19948;BMP180;10135;50.702;7.276;2023-08-06T10:25:18;98400.00;;;19.90
19948;BMP180;10135;50.702;7.276;2023-08-06T10:29:36;98397.00;;;19.80
19948;BMP180;10135;50.702;7.276;2023-08-06T10:31:59;98403.00;;;19.70
19948;BMP180;10135;50.702;7.276;2023-08-06T10:34:02;98409.00;;;19.70
19948;BMP180;10135;50.702;7.276;2023-08-06T10:36:03;98416.00;;;19.70
19948;BMP180;10135;50.702;7.276;2023-08-06T10:38:19;98408.00;;;19.60
19948;BMP180;10135;50.702;7.276;2023-08-06T10:40:21;98423.00;;;19.60
19948;BMP180;10135;50.702;7.276;2023-08-06T10:42:28;98436.00;;;19.50
19948;BMP180;10135;50.702;7.276;2023-08-06T10:44:28;98443.00;;;19.50
19948;BMP180;10135;50.702;7.276;2023-08-06T10:46:29;98449.00;;;19.40
19948;BMP180;10135;50.702;7.276;2023-08-06T10:48:41;98447.00;;;19.30
19948;BMP180;10135;50.702;7.276;2023-08-06T10:50:45;98460.00;;;19.30
19948;BMP180;10135;50.702;7.276;2023-08-06T10:52:47;98464.00;;;19.20
19948;BMP180;10135;50.702;7.276;2023-08-06T10:54:48;98465.00;;;19.20
19948;BMP180;10135;50.702;7.276;2023-08-06T10:56:49;98464.00;;;19.10
19948;BMP180;10135;50.702;7.276;2023-08-06T10:58:53;98477.00;;;19.00
19948;BMP180;10135;50.702;7.276;2023-08-06T11:00:56;98474.00;;;19.00
19948;BMP180;10135;50.702;7.276;2023-08-06T11:02:57;98475.00;;;18.90
19948;BMP180;10135;50.702;7.276;2023-08-06T11:05:04;98484.00;;;18.90
19948;BMP180;10135;50.702;7.276;2023-08-06T11:07:07;98477.00;;;18.90
19948;BMP180;10135;50.702;7.276;2023-08-06T11:09:07;98485.00;;;18.80
19948;BMP180;10135;50.702;7.276;2023-08-06T11:11:14;98481.00;;;18.80
19948;BMP180;10135;50.702;7.276;2023-08-06T11:13:17;98491.00;;;18.80
19948;BMP180;10135;50.702;7.276;2023-08-06T11:15:20;98482.00;;;18.70
19948;BMP180;10135;50.702;7.276;2023-08-06T11:17:22;98493.00;;;18.70
19948;BMP180;10135;50.702;7.276;2023-08-06T11:19:23;98487.00;;;18.70
19948;BMP180;10135;50.702;7.276;2023-08-06T11:21:25;98497.00;;;18.70
19948;BMP180;10135;50.702;7.276;2023-08-06T11:23:29;98488.00;;;18.60
19948;BMP180;10135;50.702;7.276;2023-08-06T11:25:30;98506.00;;;18.70
19948;BMP180;10135;50.702;7.276;2023-08-06T11:27:30;98506.00;;;18.70
19948;BMP180;10135;50.702;7.276;2023-08-06T11:29:38;98508.00;;;18.60
19948;BMP180;10135;50.702;7.276;2023-08-06T11:31:38;98516.00;;;18.60
19948;BMP180;10135;50.702;7.276;2023-08-06T11:33:41;98510.00;;;18.60
19948;BMP180;10135;50.702;7.276;2023-08-06T11:35:41;98526.00;;;18.60
19948;BMP180;10135;50.702;7.276;2023-08-06T11:37:46;98529.00;;;18.60
19948;BMP180;10135;50.702;7.276;2023-08-06T11:39:47;98538.00;;;18.60
19948;BMP180;10135;50.702;7.276;2023-08-06T11:41:49;98527.00;;;18.60
19948;BMP180;10135;50.702;7.276;2023-08-06T11:43:50;98536.00;;;18.60
19948;BMP180;10135;50.702;7.276;2023-08-06T11:45:51;98531.00;;;18.60
19948;BMP180;10135;50.702;7.276;2023-08-06T11:47:54;98539.00;;;18.60
19948;BMP180;10135;50.702;7.276;2023-08-06T11:49:55;98538.00;;;18.60
19948;BMP180;10135;50.702;7.276;2023-08-06T11:51:55;98543.00;;;18.60
19948;BMP180;10135;50.702;7.276;2023-08-06T11:53:57;98539.00;;;18.60
19948;BMP180;10135;50.702;7.276;2023-08-06T11:55:58;98547.00;;;18.70
19948;BMP180;10135;50.702;7.276;2023-08-06T11:58:03;98543.00;;;18.60
19948;BMP180;10135;50.702;7.276;2023-08-06T12:00:10;98558.00;;;18.70
19948;BMP180;10135;50.702;7.276;2023-08-06T12:02:11;98557.00;;;18.70
19948;BMP180;10135;50.702;7.276;2023-08-06T12:04:12;98554.00;;;18.70
19948;BMP180;10135;50.702;7.276;2023-08-06T12:06:13;98563.00;;;18.70
19948;BMP180;10135;50.702;7.276;2023-08-06T12:08:13;98564.00;;;18.70
19948;BMP180;10135;50.702;7.276;2023-08-06T12:10:15;98561.00;;;18.80
19948;BMP180;10135;50.702;7.276;2023-08-06T12:12:16;98563.00;;;18.80
19948;BMP180;10135;50.702;7.276;2023-08-06T12:14:16;98572.00;;;18.80
19948;BMP180;10135;50.702;7.276;2023-08-06T12:16:17;98571.00;;;18.80
19948;BMP180;10135;50.702;7.276;2023-08-06T12:18:19;98568.00;;;18.80
19948;BMP180;10135;50.702;7.276;2023-08-06T12:20:20;98575.00;;;18.80
19948;BMP180;10135;50.702;7.276;2023-08-06T12:22:21;98571.00;;;18.80
19948;BMP180;10135;50.702;7.276;2023-08-06T12:24:22;98580.00;;;18.80
19948;BMP180;10135;50.702;7.276;2023-08-06T12:26:22;98577.00;;;18.80
19948;BMP180;10135;50.702;7.276;2023-08-06T12:28:23;98574.00;;;18.80
19948;BMP180;10135;50.702;7.276;2023-08-06T12:30:24;98581.00;;;18.80
19948;BMP180;10135;50.702;7.276;2023-08-06T12:32:24;98582.00;;;18.80
19948;BMP180;10135;50.702;7.276;2023-08-06T12:34:25;98575.00;;;18.90
19948;BMP180;10135;50.702;7.276;2023-08-06T12:36:25;98585.00;;;18.90
19948;BMP180;10135;50.702;7.276;2023-08-06T12:38:26;98569.00;;;18.90
19948;BMP180;10135;50.702;7.276;2023-08-06T12:40:27;98584.00;;;18.90
19948;BMP180;10135;50.702;7.276;2023-08-06T12:42:27;98581.00;;;18.90
19948;BMP180;10135;50.702;7.276;2023-08-06T12:44:28;98585.00;;;18.90
19948;BMP180;10135;50.702;7.276;2023-08-06T12:46:30;98580.00;;;18.90
19948;BMP180;10135;50.702;7.276;2023-08-06T12:48:31;98580.00;;;18.90
19948;BMP180;10135;50.702;7.276;2023-08-06T12:50:31;98584.00;;;18.90
19948;BMP180;10135;50.702;7.276;2023-08-06T12:52:33;98591.00;;;18.90
19948;BMP180;10135;50.702;7.276;2023-08-06T12:54:33;98595.00;;;18.90
19948;BMP180;10135;50.702;7.276;2023-08-06T12:56:37;98590.00;;;19.00
19948;BMP180;10135;50.702;7.276;2023-08-06T12:58:38;98594.00;;;19.00
19948;BMP180;10135;50.702;7.276;2023-08-06T13:00:40;98593.00;;;19.00
19948;BMP180;10135;50.702;7.276;2023-08-06T13:02:40;98594.00;;;19.00
19948;BMP180;10135;50.702;7.276;2023-08-06T13:04:41;98596.00;;;19.00
19948;BMP180;10135;50.702;7.276;2023-08-06T13:06:42;98602.00;;;19.00
19948;BMP180;10135;50.702;7.276;2023-08-06T13:08:42;98602.00;;;19.00
19948;BMP180;10135;50.702;7.276;2023-08-06T13:10:43;98604.00;;;19.00
19948;BMP180;10135;50.702;7.276;2023-08-06T13:12:44;98608.00;;;19.00
19948;BMP180;10135;50.702;7.276;2023-08-06T13:14:45;98613.00;;;19.00
19948;BMP180;10135;50.702;7.276;2023-08-06T13:16:46;98622.00;;;19.00
19948;BMP180;10135;50.702;7.276;2023-08-06T13:18:47;98624.00;;;19.10
19948;BMP180;10135;50.702;7.276;2023-08-06T13:20:47;98619.00;;;19.10
19948;BMP180;10135;50.702;7.276;2023-08-06T13:22:50;98616.00;;;19.10
19948;BMP180;10135;50.702;7.276;2023-08-06T13:24:53;98618.00;;;19.10
19948;BMP180;10135;50.702;7.276;2023-08-06T13:26:54;98616.00;;;19.10
19948;BMP180;10135;50.702;7.276;2023-08-06T13:28:57;98622.00;;;19.10
19948;BMP180;10135;50.702;7.276;2023-08-06T13:30:58;98616.00;;;19.10
19948;BMP180;10135;50.702;7.276;2023-08-06T13:32:58;98626.00;;;19.10
19948;BMP180;10135;50.702;7.276;2023-08-06T13:34:59;98625.00;;;19.20
19948;BMP180;10135;50.702;7.276;2023-08-06T13:37:00;98628.00;;;19.20
19948;BMP180;10135;50.702;7.276;2023-08-06T13:39:01;98640.00;;;19.20
19948;BMP180;10135;50.702;7.276;2023-08-06T13:41:01;98637.00;;;19.20
19948;BMP180;10135;50.702;7.276;2023-08-06T13:43:02;98638.00;;;19.20
19948;BMP180;10135;50.702;7.276;2023-08-06T13:45:04;98638.00;;;19.20
19948;BMP180;10135;50.702;7.276;2023-08-06T13:47:06;98639.00;;;19.20
19948;BMP180;10135;50.702;7.276;2023-08-06T13:49:06;98640.00;;;19.20
19948;BMP180;10135;50.702;7.276;2023-08-06T13:51:07;98652.00;;;19.20
19948;BMP180;10135;50.702;7.276;2023-08-06T13:53:08;98648.00;;;19.20
19948;BMP180;10135;50.702;7.276;2023-08-06T13:55:09;98650.00;;;19.20
19948;BMP180;10135;50.702;7.276;2023-08-06T13:57:09;98648.00;;;19.20
19948;BMP180;10135;50.702;7.276;2023-08-06T13:59:10;98651.00;;;19.20
19948;BMP180;10135;50.702;7.276;2023-08-06T14:01:17;98654.00;;;19.20
19948;BMP180;10135;50.702;7.276;2023-08-06T14:03:19;98652.00;;;19.20
19948;BMP180;10135;50.702;7.276;2023-08-06T14:05:20;98659.00;;;19.20
19948;BMP180;10135;50.702;7.276;2023-08-06T14:07:21;98651.00;;;19.10
19948;BMP180;10135;50.702;7.276;2023-08-06T14:09:22;98645.00;;;19.10
19948;BMP180;10135;50.702;7.276;2023-08-06T14:11:22;98654.00;;;19.10
19948;BMP180;10135;50.702;7.276;2023-08-06T14:13:23;98655.00;;;19.10
19948;BMP180;10135;50.702;7.276;2023-08-06T14:15:24;98652.00;;;19.10
19948;BMP180;10135;50.702;7.276;2023-08-06T14:17:24;98663.00;;;19.10
19948;BMP180;10135;50.702;7.276;2023-08-06T14:19:25;98666.00;;;19.10
19948;BMP180;10135;50.702;7.276;2023-08-06T14:21:26;98666.00;;;19.10
19948;BMP180;10135;50.702;7.276;2023-08-06T14:23:26;98667.00;;;19.10
19948;BMP180;10135;50.702;7.276;2023-08-06T14:25:27;98679.00;;;19.10
19948;BMP180;10135;50.702;7.276;2023-08-06T14:27:28;98673.00;;;19.10
19948;BMP180;10135;50.702;7.276;2023-08-06T14:29:29;98681.00;;;19.10
19948;BMP180;10135;50.702;7.276;2023-08-06T14:31:30;98678.00;;;19.10
19948;BMP180;10135;50.702;7.276;2023-08-06T14:33:30;98686.00;;;19.10
19948;BMP180;10135;50.702;7.276;2023-08-06T14:35:31;98692.00;;;19.20
19948;BMP180;10135;50.702;7.276;2023-08-06T14:37:31;98685.00;;;19.20
19948;BMP180;10135;50.702;7.276;2023-08-06T14:39:32;98693.00;;;19.20
19948;BMP180;10135;50.702;7.276;2023-08-06T14:41:33;98684.00;;;19.20
19948;BMP180;10135;50.702;7.276;2023-08-06T14:43:33;98691.00;;;19.20
19948;BMP180;10135;50.702;7.276;2023-08-06T14:45:38;98692.00;;;19.20
19948;BMP180;10135;50.702;7.276;2023-08-06T14:47:39;98691.00;;;19.20
19948;BMP180;10135;50.702;7.276;2023-08-06T14:49:40;98694.00;;;19.20
19948;BMP180;10135;50.702;7.276;2023-08-06T14:51:41;98695.00;;;19.20
19948;BMP180;10135;50.702;7.276;2023-08-06T14:53:41;98696.00;;;19.20
19948;BMP180;10135;50.702;7.276;2023-08-06T14:55:43;98689.00;;;19.20
19948;BMP180;10135;50.702;7.276;2023-08-06T14:57:44;98701.00;;;19.20
19948;BMP180;10135;50.702;7.276;2023-08-06T14:59:45;98701.00;;;19.20
19948;BMP180;10135;50.702;7.276;2023-08-06T15:01:45;98692.00;;;19.20
19948;BMP180;10135;50.702;7.276;2023-08-06T15:03:46;98702.00;;;19.20
19948;BMP180;10135;50.702;7.276;2023-08-06T15:05:48;98700.00;;;19.20
19948;BMP180;10135;50.702;7.276;2023-08-06T15:07:48;98705.00;;;19.20
19948;BMP180;10135;50.702;7.276;2023-08-06T15:09:49;98707.00;;;19.20
19948;BMP180;10135;50.702;7.276;2023-08-06T15:11:50;98705.00;;;19.30
19948;BMP180;10135;50.702;7.276;2023-08-06T15:13:51;98707.00;;;19.30
19948;BMP180;10135;50.702;7.276;2023-08-06T15:15:51;98715.00;;;19.30
19948;BMP180;10135;50.702;7.276;2023-08-06T15:17:52;98711.00;;;19.30
19948;BMP180;10135;50.702;7.276;2023-08-06T15:19:53;98708.00;;;19.30
19948;BMP180;10135;50.702;7.276;2023-08-06T15:21:54;98721.00;;;19.30
19948;BMP180;10135;50.702;7.276;2023-08-06T15:23:54;98717.00;;;19.30
19948;BMP180;10135;50.702;7.276;2023-08-06T15:25:55;98712.00;;;19.30
19948;BMP180;10135;50.702;7.276;2023-08-06T15:27:56;98715.00;;;19.30
19948;BMP180;10135;50.702;7.276;2023-08-06T15:29:56;98721.00;;;19.30
19948;BMP180;10135;50.702;7.276;2023-08-06T15:31:57;98729.00;;;19.30
19948;BMP180;10135;50.702;7.276;2023-08-06T15:33:58;98731.00;;;19.30
19948;BMP180;10135;50.702;7.276;2023-08-06T15:35:58;98738.00;;;19.30
19948;BMP180;10135;50.702;7.276;2023-08-06T15:37:59;98744.00;;;19.30
19948;BMP180;10135;50.702;7.276;2023-08-06T15:40:00;98751.00;;;19.30
19948;BMP180;10135;50.702;7.276;2023-08-06T15:42:00;98748.00;;;19.30
19948;BMP180;10135;50.702;7.276;2023-08-06T15:44:01;98742.00;;;19.30
19948;BMP180;10135;50.702;7.276;2023-08-06T15:46:02;98744.00;;;19.30
19948;BMP180;10135;50.702;7.276;2023-08-06T15:48:03;98752.00;;;19.30
19948;BMP180;10135;50.702;7.276;2023-08-06T15:50:05;98757.00;;;19.30
19948;BMP180;10135;50.702;7.276;2023-08-06T15:52:07;98744.00;;;19.30
19948;BMP180;10135;50.702;7.276;2023-08-06T15:54:08;98751.00;;;19.30
19948;BMP180;10135;50.702;7.276;2023-08-06T15:56:09;98754.00;;;19.30
19948;BMP180;10135;50.702;7.276;2023-08-06T15:58:09;98753.00;;;19.30
19948;BMP180;10135;50.702;7.276;2023-08-06T16:00:10;98756.00;;;19.30
19948;BMP180;10135;50.702;7.276;2023-08-06T16:02:11;98763.00;;;19.30
19948;BMP180;10135;50.702;7.276;2023-08-06T16:04:13;98765.00;;;19.30
19948;BMP180;10135;50.702;7.276;2023-08-06T16:06:14;98761.00;;;19.30
19948;BMP180;10135;50.702;7.276;2023-08-06T16:08:14;98766.00;;;19.30
19948;BMP180;10135;50.702;7.276;2023-08-06T16:10:15;98772.00;;;19.30
19948;BMP180;10135;50.702;7.276;2023-08-06T16:12:19;98764.00;;;19.30
19948;BMP180;10135;50.702;7.276;2023-08-06T16:14:20;98777.00;;;19.30
19948;BMP180;10135;50.702;7.276;2023-08-06T16:16:21;98774.00;;;19.30
19948;BMP180;10135;50.702;7.276;2023-08-06T16:18:22;98775.00;;;19.30
19948;BMP180;10135;50.702;7.276;2023-08-06T16:20:22;98777.00;;;19.30
19948;BMP180;10135;50.702;7.276;2023-08-06T16:22:24;98771.00;;;19.30
19948;BMP180;10135;50.702;7.276;2023-08-06T16:24:25;98778.00;;;19.30
19948;BMP180;10135;50.702;7.276;2023-08-06T16:26:26;98784.00;;;19.30
19948;BMP180;10135;50.702;7.276;2023-08-06T16:28:26;98781.00;;;19.30
19948;BMP180;10135;50.702;7.276;2023-08-06T16:30:29;98783.00;;;19.30
19948;BMP180;10135;50.702;7.276;2023-08-06T16:32:32;98783.00;;;19.30
19948;BMP180;10135;50.702;7.276;2023-08-06T16:34:33;98793.00;;;19.30
19948;BMP180;10135;50.702;7.276;2023-08-06T16:36:34;98792.00;;;19.30
19948;BMP180;10135;50.702;7.276;2023-08-06T16:38:34;98788.00;;;19.30
19948;BMP180;10135;50.702;7.276;2023-08-06T16:40:35;98791.00;;;19.20
19948;BMP180;10135;50.702;7.276;2023-08-06T16:42:36;98798.00;;;19.20
19948;BMP180;10135;50.702;7.276;2023-08-06T16:44:36;98792.00;;;19.20
19948;BMP180;10135;50.702;7.276;2023-08-06T16:46:38;98788.00;;;19.20
19948;BMP180;10135;50.702;7.276;2023-08-06T16:48:38;98799.00;;;19.20
19948;BMP180;10135;50.702;7.276;2023-08-06T16:50:39;98797.00;;;19.20
19948;BMP180;10135;50.702;7.276;2023-08-06T16:52:39;98788.00;;;19.20
19948;BMP180;10135;50.702;7.276;2023-08-06T16:54:40;98799.00;;;19.20
19948;BMP180;10135;50.702;7.276;2023-08-06T16:56:41;98809.00;;;19.20
19948;BMP180;10135;50.702;7.276;2023-08-06T16:58:41;98803.00;;;19.20
19948;BMP180;10135;50.702;7.276;2023-08-06T17:00:49;98808.00;;;19.20
19948;BMP180;10135;50.702;7.276;2023-08-06T17:02:50;98809.00;;;19.20
19948;BMP180;10135;50.702;7.276;2023-08-06T17:04:50;98812.00;;;19.20
19948;BMP180;10135;50.702;7.276;2023-08-06T17:06:51;98819.00;;;19.20
19948;BMP180;10135;50.702;7.276;2023-08-06T17:08:53;98816.00;;;19.20
19948;BMP180;10135;50.702;7.276;2023-08-06T17:10:54;98819.00;;;19.20
19948;BMP180;10135;50.702;7.276;2023-08-06T17:12:54;98825.00;;;19.20